Time;durP1;ratioP1;P1;durP2;ratioP2;P2;SDS_P1;SDS_P2;PMS_P1;PMS_P2;Temp;Humidity;BMP_temperature;BMP_pressure;BME280_temperature;BME280_humidity;BME280_pressure;Samples;Min_cycle;Max_cycle;Signal;HPM_P1;HPM_P2
2024/01/05 00:02:04;;;;;;;3.42;1.77;;;7.70;99.90;;;;;;5007465;28;20128;-71
2024/01/05 00:04:31;;;;;;;3.35;1.45;;;7.60;99.90;;;;;;5000784;28;20050;-70
2024/01/05 00:06:58;;;;;;;6.15;1.80;;;7.60;99.90;;;;;;5003554;28;20060;-70
2024/01/05 00:09:25;;;;;;;7.70;1.83;;;7.60;99.90;;;;;;5003932;28;20133;-70
2024/01/05 00:11:52;;;;;;;1.95;1.27;;;7.40;99.90;;;;;;5003655;28;20612;-71
2024/01/05 00:14:19;;;;;;;2.28;1.20;;;7.40;99.90;;;;;;4994850;28;20576;-70
2024/01/05 00:16:46;;;;;;;2.88;1.42;;;7.30;99.90;;;;;;5007279;28;20052;-69
2024/01/05 00:19:13;;;;;;;3.67;1.40;;;7.20;99.90;;;;;;5007673;28;20050;-71
2024/01/05 00:21:40;;;;;;;3.38;1.17;;;7.10;99.90;;;;;;5005351;28;20501;-70
2024/01/05 00:24:07;;;;;;;2.78;1.40;;;7.10;99.90;;;;;;4990194;28;20050;-71
2024/01/05 00:26:34;;;;;;;4.15;1.65;;;7.10;99.90;;;;;;5002430;28;21722;-70
2024/01/05 00:29:02;;;;;;;3.22;1.30;;;7.00;99.90;;;;;;4988257;28;20049;-70
2024/01/05 00:31:29;;;;;;;4.95;1.40;;;7.00;99.90;;;;;;4969369;28;20077;-70
2024/01/05 00:33:56;;;;;;;3.80;1.42;;;7.00;99.90;;;;;;5002052;28;20046;-70
2024/01/05 00:36:23;;;;;;;2.75;1.25;;;7.00;99.90;;;;;;4994636;28;20393;-70
2024/01/05 00:38:50;;;;;;;6.03;1.33;;;6.90;99.90;;;;;;4988731;28;20052;-71
2024/01/05 00:41:17;;;;;;;4.25;1.65;;;6.80;99.90;;;;;;5006304;28;20678;-71
2024/01/05 00:43:44;;;;;;;4.35;2.30;;;6.80;99.90;;;;;;5004650;28;20567;-71
2024/01/05 00:46:10;;;;;;;2.28;0.75;;;6.80;99.90;;;;;;4989798;28;20563;-71
2024/01/05 00:48:37;;;;;;;2.55;1.17;;;6.60;99.90;;;;;;5004133;28;20064;-71
2024/01/05 00:51:04;;;;;;;2.03;0.82;;;6.60;99.90;;;;;;5005597;28;20100;-70
2024/01/05 00:53:31;;;;;;;3.83;1.38;;;6.60;99.90;;;;;;5006170;28;20068;-70
2024/01/05 00:55:58;;;;;;;4.03;1.00;;;6.60;99.90;;;;;;5005798;28;20054;-71
2024/01/05 00:58:25;;;;;;;4.45;0.98;;;6.60;99.90;;;;;;5006772;28;20066;-70
2024/01/05 01:00:52;;;;;;;0.77;0.63;;;6.50;99.90;;;;;;5007929;28;20050;-70
2024/01/05 01:03:19;;;;;;;1.13;0.60;;;6.40;99.90;;;;;;4979025;28;20042;-72
2024/01/05 01:05:46;;;;;;;1.38;0.55;;;6.40;99.90;;;;;;4993689;28;20093;-71
2024/01/05 01:08:13;;;;;;;1.77;0.52;;;6.30;99.90;;;;;;5012083;28;20049;-71
2024/01/05 01:10:40;;;;;;;1.02;0.40;;;6.20;99.90;;;;;;5009327;28;20054;-71
2024/01/05 01:13:07;;;;;;;1.70;0.70;;;6.20;99.90;;;;;;4989652;28;20104;-72
2024/01/05 01:15:34;;;;;;;1.25;0.60;;;6.10;99.90;;;;;;4984828;28;20058;-71
2024/01/05 01:18:02;;;;;;;1.35;0.40;;;6.00;99.90;;;;;;5002220;28;20123;-70
2024/01/05 01:20:29;;;;;;;3.63;0.60;;;5.90;99.90;;;;;;4986025;28;20088;-70
2024/01/05 01:22:56;;;;;;;1.80;0.65;;;5.90;99.90;;;;;;5003929;28;20057;-72
2024/01/05 01:25:22;;;;;;;0.57;0.35;;;5.80;99.90;;;;;;4996078;28;20077;-71
2024/01/05 01:27:49;;;;;;;0.55;0.50;;;5.80;99.90;;;;;;4995115;28;20046;-71
2024/01/05 01:30:16;;;;;;;0.30;0.30;;;5.80;99.90;;;;;;4997997;28;20096;-71
2024/01/05 01:32:43;;;;;;;0.88;0.50;;;5.70;99.90;;;;;;5007482;28;20504;-71
2024/01/05 01:35:10;;;;;;;2.78;0.50;;;5.70;99.90;;;;;;5007463;28;20046;-72
2024/01/05 01:37:37;;;;;;;0.95;0.50;;;5.70;99.90;;;;;;4990409;28;20054;-70
2024/01/05 01:40:04;;;;;;;2.60;0.65;;;5.60;99.90;;;;;;5008840;28;20042;-70
2024/01/05 01:42:32;;;;;;;2.05;0.68;;;5.50;99.90;;;;;;5003126;28;20053;-70
2024/01/05 01:45:00;;;;;;;4.13;0.55;;;5.50;99.90;;;;;;4985707;28;20468;-70
2024/01/05 01:47:28;;;;;;;2.38;0.60;;;5.50;99.90;;;;;;4994611;28;20512;-72
2024/01/05 01:49:55;;;;;;;3.80;0.68;;;5.50;99.90;;;;;;5006914;28;20527;-71
2024/01/05 01:52:22;;;;;;;2.70;0.60;;;5.50;99.90;;;;;;5004586;28;20045;-72
2024/01/05 01:54:49;;;;;;;1.48;0.60;;;5.40;99.90;;;;;;4983292;28;20053;-71
2024/01/05 01:57:17;;;;;;;3.25;0.70;;;5.50;99.90;;;;;;4985658;28;20104;-72
2024/01/05 01:59:45;;;;;;;3.20;0.70;;;5.50;99.90;;;;;;5007648;28;20123;-72
2024/01/05 02:02:12;;;;;;;2.50;0.93;;;5.50;99.90;;;;;;5002040;28;20053;-72
2024/01/05 02:04:39;;;;;;;2.17;0.60;;;5.50;99.90;;;;;;5002903;28;20057;-72
2024/01/05 02:07:06;;;;;;;3.88;1.15;;;5.50;99.90;;;;;;4969520;28;20650;-71
2024/01/05 02:09:33;;;;;;;2.70;0.60;;;5.40;99.90;;;;;;4988098;28;20100;-72
2024/01/05 02:12:00;;;;;;;0.75;0.40;;;5.40;99.90;;;;;;4985637;28;20510;-72
2024/01/05 02:14:27;;;;;;;1.45;0.50;;;5.40;99.90;;;;;;5005017;28;20112;-72
2024/01/05 02:16:55;;;;;;;3.22;0.50;;;5.40;99.90;;;;;;5004220;28;20088;-72
2024/01/05 02:19:22;;;;;;;1.10;0.52;;;5.40;99.90;;;;;;4999849;28;20053;-71
2024/01/05 02:21:50;;;;;;;5.35;0.47;;;5.30;99.90;;;;;;5002584;28;20049;-70
2024/01/05 02:24:17;;;;;;;2.47;0.35;;;5.30;99.90;;;;;;5005910;28;20492;-71
2024/01/05 02:26:44;;;;;;;0.55;0.40;;;5.30;99.90;;;;;;5000801;28;20050;-72
2024/01/05 02:29:13;;;;;;;0.52;0.30;;;5.30;99.90;;;;;;5000727;28;20125;-71
2024/01/05 02:31:40;;;;;;;0.65;0.35;;;5.30;99.90;;;;;;5003652;28;20099;-72
2024/01/05 02:34:07;;;;;;;0.20;0.20;;;5.30;99.90;;;;;;5004639;28;20199;-71
2024/01/05 02:36:34;;;;;;;1.70;0.38;;;5.30;99.90;;;;;;5009366;28;20103;-71
2024/01/05 02:39:01;;;;;;;2.20;0.52;;;5.30;99.90;;;;;;5003238;28;20122;-71
2024/01/05 02:41:28;;;;;;;0.32;0.32;;;5.20;99.90;;;;;;5004398;28;20401;-72
2024/01/05 02:43:55;;;;;;;1.10;0.57;;;5.30;99.90;;;;;;5007226;28;20481;-71
2024/01/05 02:46:21;;;;;;;2.83;0.50;;;5.20;99.90;;;;;;5008862;28;20057;-71
2024/01/05 02:48:48;;;;;;;2.95;0.70;;;5.20;99.90;;;;;;5005888;28;20073;-71
2024/01/05 02:51:15;;;;;;;1.45;0.40;;;5.20;99.90;;;;;;5006024;28;20042;-72
2024/01/05 02:53:42;;;;;;;3.10;0.40;;;5.20;99.90;;;;;;5011138;28;20054;-72
2024/01/05 02:56:18;;;;;;;0.98;0.45;;;5.20;99.90;;;;;;5004444;28;20053;-71
2024/01/05 02:58:45;;;;;;;1.65;0.40;;;5.10;99.90;;;;;;5007445;28;20046;-71
2024/01/05 03:01:16;;;;;;;1.65;0.57;;;5.20;99.90;;;;;;5008626;28;20112;-71
2024/01/05 03:03:46;;;;;;;1.27;0.52;;;5.10;99.90;;;;;;5004569;28;20070;-72
2024/01/05 03:06:17;;;;;;;0.43;0.35;;;5.10;99.90;;;;;;5009250;28;20123;-72
2024/01/05 03:08:44;;;;;;;4.20;0.73;;;5.10;99.90;;;;;;4985448;28;20145;-72
2024/01/05 03:11:11;;;;;;;3.05;0.65;;;5.10;99.90;;;;;;5007905;28;20054;-71
2024/01/05 03:13:38;;;;;;;2.72;0.70;;;5.10;99.90;;;;;;5004066;28;20432;-72
2024/01/05 03:16:05;;;;;;;1.85;0.50;;;5.00;99.90;;;;;;4984768;28;20421;-72
2024/01/05 03:18:32;;;;;;;4.63;0.68;;;5.00;99.90;;;;;;5005783;28;20050;-72
2024/01/05 03:20:59;;;;;;;4.10;0.85;;;5.00;99.90;;;;;;5009720;28;20140;-72
2024/01/05 03:23:26;;;;;;;0.52;0.40;;;5.00;99.90;;;;;;5006560;28;20050;-72
2024/01/05 03:25:53;;;;;;;2.33;0.90;;;5.00;99.90;;;;;;5009678;28;20481;-72
2024/01/05 03:28:21;;;;;;;7.25;0.85;;;4.90;99.90;;;;;;5006040;28;20489;-71
2024/01/05 03:30:48;;;;;;;2.22;0.68;;;4.90;99.90;;;;;;4991333;28;20050;-72
2024/01/05 03:33:15;;;;;;;1.05;0.65;;;4.90;99.90;;;;;;5007136;28;20077;-72
2024/01/05 03:35:42;;;;;;;1.30;0.60;;;4.90;99.90;;;;;;5006197;28;20104;-71
2024/01/05 03:38:09;;;;;;;1.40;0.60;;;4.90;99.90;;;;;;4999993;28;20144;-71
2024/01/05 03:40:36;;;;;;;0.90;0.50;;;4.90;99.90;;;;;;5008741;28;20049;-71
2024/01/05 03:43:03;;;;;;;1.40;0.65;;;4.80;99.90;;;;;;5005937;28;20460;-72
2024/01/05 03:45:30;;;;;;;2.70;0.90;;;4.80;99.90;;;;;;5010159;28;20150;-71
2024/01/05 03:47:57;;;;;;;2.25;0.60;;;4.80;99.90;;;;;;4991078;28;20042;-71
2024/01/05 03:50:25;;;;;;;2.10;0.77;;;4.80;99.90;;;;;;5007987;28;20089;-71
2024/01/05 03:52:52;;;;;;;1.95;0.93;;;4.80;99.90;;;;;;5007030;28;20366;-71
2024/01/05 03:55:18;;;;;;;0.90;0.63;;;4.80;99.90;;;;;;5007706;28;20112;-71
2024/01/05 03:57:48;;;;;;;3.97;0.82;;;4.80;99.90;;;;;;5007575;28;21151;-71
2024/01/05 04:00:15;;;;;;;4.00;1.83;;;4.80;99.90;;;;;;5007564;28;20046;-71
2024/01/05 04:02:42;;;;;;;1.95;1.08;;;4.80;99.90;;;;;;5006149;28;20142;-71
2024/01/05 04:05:09;;;;;;;2.78;1.00;;;4.80;99.90;;;;;;5007592;28;20524;-71
2024/01/05 04:07:38;;;;;;;4.05;0.98;;;4.90;99.90;;;;;;5004776;28;20045;-72
2024/01/05 04:10:08;;;;;;;2.65;0.93;;;4.90;99.90;;;;;;5003319;28;20044;-71
2024/01/05 04:12:35;;;;;;;3.88;1.55;;;4.80;99.90;;;;;;4995360;28;20049;-71
2024/01/05 04:15:02;;;;;;;4.70;1.30;;;4.90;99.90;;;;;;5005001;28;20056;-73
2024/01/05 04:17:29;;;;;;;4.18;1.40;;;4.90;99.90;;;;;;5008283;28;20053;-71
2024/01/05 04:19:56;;;;;;;5.70;1.65;;;4.90;99.90;;;;;;5007531;28;20049;-71
2024/01/05 04:22:22;;;;;;;6.95;1.65;;;4.90;99.90;;;;;;5009438;28;20041;-72
2024/01/05 04:24:49;;;;;;;7.93;1.65;;;4.90;99.90;;;;;;5004167;28;20053;-72
2024/01/05 04:27:16;;;;;;;3.78;1.05;;;4.90;99.90;;;;;;5007882;28;20058;-72
2024/01/05 04:29:43;;;;;;;3.97;1.88;;;4.90;99.90;;;;;;5009420;28;20129;-72
2024/01/05 04:32:10;;;;;;;3.67;1.50;;;4.90;99.90;;;;;;4986536;28;20062;-72
2024/01/05 04:34:37;;;;;;;5.28;1.52;;;5.00;99.90;;;;;;4998944;28;20108;-71
2024/01/05 04:37:04;;;;;;;6.03;1.95;;;5.00;99.90;;;;;;5008341;28;20054;-72
2024/01/05 04:39:31;;;;;;;5.45;1.90;;;5.00;99.90;;;;;;5008992;28;20046;-72
2024/01/05 04:41:58;;;;;;;7.85;2.33;;;5.00;99.90;;;;;;4993142;28;20057;-72
2024/01/05 04:44:25;;;;;;;6.50;2.05;;;5.00;99.90;;;;;;4994305;28;20084;-72
2024/01/05 04:46:51;;;;;;;3.13;1.95;;;5.00;99.90;;;;;;4991843;28;20483;-72
2024/01/05 04:49:18;;;;;;;7.28;2.95;;;5.00;99.90;;;;;;5006774;28;20041;-72
2024/01/05 04:51:46;;;;;;;6.38;2.80;;;5.00;99.90;;;;;;5010624;28;20046;-73
2024/01/05 04:54:13;;;;;;;5.90;3.00;;;5.10;99.90;;;;;;4992941;28;20049;-73
2024/01/05 04:56:40;;;;;;;9.43;3.03;;;5.10;99.90;;;;;;5013168;28;20050;-72
2024/01/05 04:59:07;;;;;;;6.32;3.85;;;5.20;99.90;;;;;;5006093;28;20069;-74
2024/01/05 05:01:35;;;;;;;10.85;4.88;;;5.20;99.90;;;;;;5011087;28;20061;-75
2024/01/05 05:04:02;;;;;;;9.57;4.80;;;5.20;99.90;;;;;;5002776;28;20464;-72
2024/01/05 05:06:29;;;;;;;10.52;4.20;;;5.20;99.90;;;;;;5010813;28;20136;-73
2024/01/05 05:08:56;;;;;;;9.05;4.90;;;5.30;99.90;;;;;;4987728;28;20046;-74
2024/01/05 05:11:23;;;;;;;22.90;5.80;;;5.30;99.90;;;;;;5005964;28;20079;-72
2024/01/05 05:13:49;;;;;;;18.80;6.32;;;5.30;99.90;;;;;;5012384;28;20104;-73
2024/01/05 05:16:16;;;;;;;16.35;6.25;;;5.40;99.90;;;;;;5012577;28;20540;-72
2024/01/05 05:18:43;;;;;;;12.73;5.63;;;5.30;99.90;;;;;;5012061;28;20066;-73
2024/01/05 05:21:10;;;;;;;15.70;5.82;;;5.40;99.90;;;;;;5004698;28;20045;-73
2024/01/05 05:23:37;;;;;;;16.05;6.97;;;5.30;99.90;;;;;;5010960;28;20057;-72
2024/01/05 05:26:05;;;;;;;14.77;4.45;;;5.40;99.90;;;;;;5010149;28;20100;-72
2024/01/05 05:28:32;;;;;;;17.27;6.50;;;5.40;99.90;;;;;;4991526;28;20038;-73
2024/01/05 05:30:59;;;;;;;22.85;8.15;;;5.40;99.90;;;;;;5008852;28;20050;-72
2024/01/05 05:33:26;;;;;;;17.90;5.53;;;5.40;99.90;;;;;;5005183;28;20404;-73
2024/01/05 05:35:53;;;;;;;18.80;7.30;;;5.40;99.90;;;;;;5010198;28;20096;-72
2024/01/05 05:38:20;;;;;;;22.77;9.13;;;5.40;99.90;;;;;;5007132;28;20046;-74
2024/01/05 05:40:46;;;;;;;15.02;5.72;;;5.40;99.90;;;;;;4976439;28;20109;-72
2024/01/05 05:43:13;;;;;;;15.77;7.63;;;5.40;99.90;;;;;;4992158;28;20042;-71
2024/01/05 05:45:41;;;;;;;28.10;6.88;;;5.40;99.90;;;;;;5008951;28;20050;-72
2024/01/05 05:48:08;;;;;;;27.23;7.63;;;5.40;99.90;;;;;;5003418;28;20064;-72
2024/01/05 05:50:35;;;;;;;19.63;8.32;;;5.40;99.90;;;;;;5008954;28;20048;-72
2024/01/05 05:53:01;;;;;;;23.27;7.47;;;5.40;99.90;;;;;;5006662;28;20050;-72
2024/01/05 05:55:28;;;;;;;19.10;7.90;;;5.40;99.90;;;;;;5008667;28;20488;-73
2024/01/05 05:57:57;;;;;;;20.33;8.48;;;5.40;99.90;;;;;;4992094;28;20049;-73
2024/01/05 06:00:25;;;;;;;21.45;7.50;;;5.40;99.90;;;;;;5013969;28;20053;-73
2024/01/05 06:02:51;;;;;;;24.42;8.85;;;5.40;99.90;;;;;;5007309;28;20060;-72
2024/01/05 06:05:18;;;;;;;18.50;8.77;;;5.40;99.90;;;;;;5007793;28;20080;-71
2024/01/05 06:07:45;;;;;;;22.10;9.35;;;5.40;99.90;;;;;;4988488;28;20046;-71
2024/01/05 06:10:12;;;;;;;20.10;7.82;;;5.40;99.90;;;;;;5007623;28;20054;-73
2024/01/05 06:12:39;;;;;;;27.80;8.70;;;5.40;99.90;;;;;;5006354;28;20050;-73
2024/01/05 06:15:07;;;;;;;24.25;8.30;;;5.40;99.90;;;;;;5007329;28;20041;-72
2024/01/05 06:17:34;;;;;;;22.90;8.35;;;5.40;99.90;;;;;;4980718;28;20411;-72
2024/01/05 06:20:00;;;;;;;21.35;8.25;;;5.40;99.90;;;;;;5007170;28;20060;-72
2024/01/05 06:22:27;;;;;;;18.65;7.80;;;5.40;99.90;;;;;;4989727;28;20124;-72
2024/01/05 06:24:54;;;;;;;24.83;8.15;;;5.40;99.90;;;;;;5010685;28;20111;-72
2024/01/05 06:27:21;;;;;;;18.60;7.40;;;5.40;99.90;;;;;;5006941;28;20136;-72
2024/01/05 06:30:01;;;;;;;25.67;7.53;;;5.40;99.90;;;;;;5003282;28;20472;-73
2024/01/05 06:32:28;;;;;;;23.38;9.23;;;5.40;99.90;;;;;;4994191;28;20117;-73
2024/01/05 06:34:55;;;;;;;18.83;7.20;;;5.40;99.90;;;;;;5002900;28;20113;-71
2024/01/05 06:37:21;;;;;;;15.88;6.55;;;5.40;99.90;;;;;;5001746;28;20046;-72
2024/01/05 06:39:48;;;;;;;21.90;8.15;;;5.40;99.90;;;;;;4988485;28;20111;-72
2024/01/05 06:42:15;;;;;;;17.00;6.72;;;5.40;99.90;;;;;;4997912;28;20101;-73
2024/01/05 06:44:42;;;;;;;20.83;6.80;;;5.50;99.90;;;;;;4999825;28;20046;-73
2024/01/05 06:47:09;;;;;;;22.00;8.63;;;5.50;99.90;;;;;;4988394;28;20544;-73
2024/01/05 06:49:36;;;;;;;15.65;7.13;;;5.50;99.90;;;;;;5006341;28;20053;-72
2024/01/05 06:52:03;;;;;;;21.20;5.97;;;5.50;99.90;;;;;;5006542;28;20050;-73
2024/01/05 06:54:30;;;;;;;22.05;6.40;;;5.50;99.90;;;;;;5004902;28;20041;-72
2024/01/05 06:56:57;;;;;;;16.50;6.25;;;5.50;99.90;;;;;;5005306;28;20046;-73
2024/01/05 06:59:26;;;;;;;22.67;7.15;;;5.50;99.90;;;;;;5003235;28;20503;-73
2024/01/05 07:01:52;;;;;;;19.35;6.25;;;5.50;99.90;;;;;;5003903;28;20054;-72
2024/01/05 07:04:19;;;;;;;14.23;5.90;;;5.50;99.90;;;;;;4997558;28;20050;-71
2024/01/05 07:06:46;;;;;;;18.58;7.50;;;5.50;99.90;;;;;;4994556;28;20100;-71
2024/01/05 07:09:13;;;;;;;19.58;6.88;;;5.50;99.90;;;;;;5002955;28;20530;-73
2024/01/05 07:11:41;;;;;;;28.80;8.75;;;5.50;99.90;;;;;;5006237;28;20057;-72
2024/01/05 07:14:08;;;;;;;13.82;5.30;;;5.50;99.90;;;;;;4999623;28;20133;-72
2024/01/05 07:16:35;;;;;;;16.15;6.28;;;5.50;99.90;;;;;;4998168;28;20050;-73
2024/01/05 07:19:01;;;;;;;17.05;7.60;;;5.50;99.90;;;;;;4999512;28;20046;-73
2024/01/05 07:21:28;;;;;;;25.05;7.57;;;5.50;99.90;;;;;;5009540;28;20112;-73
2024/01/05 07:23:55;;;;;;;24.27;7.68;;;5.50;99.90;;;;;;5007112;28;20054;-73
2024/01/05 07:26:23;;;;;;;17.13;5.80;;;5.50;99.90;;;;;;5009296;28;20060;-73
2024/01/05 07:28:50;;;;;;;18.08;6.85;;;5.50;99.90;;;;;;4653028;28;10000379;-72
2024/01/05 07:31:25;;;;;;;14.95;6.63;;;5.50;99.90;;;;;;5001478;28;20420;-71
2024/01/05 07:33:53;;;;;;;16.02;6.25;;;5.50;99.90;;;;;;4982327;28;20054;-73
2024/01/05 07:36:20;;;;;;;26.27;6.43;;;5.50;99.90;;;;;;5003747;28;20041;-73
2024/01/05 07:38:46;;;;;;;17.45;6.90;;;5.50;99.90;;;;;;4999289;28;20042;-74
2024/01/05 07:41:16;;;;;;;18.90;6.30;;;5.50;99.90;;;;;;5003769;28;20096;-73
2024/01/05 07:43:43;;;;;;;23.63;9.98;;;5.50;99.90;;;;;;5004996;28;20408;-72
2024/01/05 07:46:10;;;;;;;18.27;6.10;;;5.60;99.90;;;;;;5003887;28;20057;-71
2024/01/05 07:48:40;;;;;;;11.95;6.60;;;5.60;99.90;;;;;;5006594;28;20116;-70
2024/01/05 07:51:08;;;;;;;15.15;6.53;;;5.50;99.90;;;;;;5008903;28;20141;-71
2024/01/05 07:53:35;;;;;;;13.50;5.70;;;5.60;99.90;;;;;;5004982;28;20049;-71
2024/01/05 07:56:03;;;;;;;17.42;6.53;;;5.60;99.90;;;;;;5002458;28;20046;-72
2024/01/05 07:58:30;;;;;;;16.70;6.03;;;5.60;99.90;;;;;;5007465;28;20056;-70
2024/01/05 08:00:57;;;;;;;12.65;6.90;;;5.50;99.90;;;;;;4998389;28;20453;-71
2024/01/05 08:03:24;;;;;;;18.80;8.07;;;5.50;99.90;;;;;;4995167;28;20096;-71
2024/01/05 08:05:51;;;;;;;13.95;6.47;;;5.60;99.90;;;;;;4997478;28;20054;-70
2024/01/05 08:08:18;;;;;;;19.95;7.38;;;5.60;99.90;;;;;;5009010;28;20125;-70
2024/01/05 08:10:45;;;;;;;15.35;7.13;;;5.60;99.90;;;;;;5005769;28;20037;-71
2024/01/05 08:13:12;;;;;;;28.52;9.85;;;5.60;99.90;;;;;;5005632;28;20569;-70
2024/01/05 08:15:39;;;;;;;16.30;7.35;;;5.60;99.90;;;;;;5000683;28;20078;-71
2024/01/05 08:18:06;;;;;;;25.95;7.05;;;5.60;99.90;;;;;;5008282;28;20409;-70
2024/01/05 08:20:33;;;;;;;18.00;6.13;;;5.60;99.90;;;;;;5008735;28;20037;-71
2024/01/05 08:23:01;;;;;;;20.90;5.40;;;5.60;99.90;;;;;;5007459;28;20141;-70
2024/01/05 08:25:28;;;;;;;22.83;7.72;;;5.60;99.90;;;;;;4991598;28;20046;-70
2024/01/05 08:27:55;;;;;;;15.20;5.97;;;5.60;99.90;;;;;;4973646;28;20050;-71
2024/01/05 08:30:22;;;;;;;15.70;6.50;;;5.60;99.90;;;;;;4988738;28;20046;-72
2024/01/05 08:32:54;;;;;;;17.05;5.95;;;5.60;99.90;;;;;;4985132;28;20054;-72
2024/01/05 08:35:22;;;;;;;13.55;6.00;;;5.60;99.90;;;;;;4990955;28;20124;-70
2024/01/05 08:37:48;;;;;;;11.93;5.55;;;5.60;99.90;;;;;;4998768;28;20046;-71
2024/01/05 08:40:16;;;;;;;19.60;5.18;;;5.60;99.90;;;;;;4999331;28;20050;-70
2024/01/05 08:42:43;;;;;;;15.82;5.70;;;5.70;99.90;;;;;;5004657;28;20049;-71
2024/01/05 08:45:10;;;;;;;13.88;4.72;;;5.60;99.90;;;;;;5008389;28;20131;-71
2024/01/05 08:47:37;;;;;;;10.85;5.07;;;5.70;99.90;;;;;;4989951;28;20045;-71
2024/01/05 08:50:06;;;;;;;19.73;5.45;;;5.70;99.90;;;;;;5008256;28;20476;-71
2024/01/05 08:52:33;;;;;;;17.42;5.68;;;5.70;99.90;;;;;;5005929;28;20049;-70
2024/01/05 08:55:00;;;;;;;16.75;5.20;;;5.70;99.90;;;;;;4997775;28;20186;-71
2024/01/05 08:57:27;;;;;;;15.18;5.72;;;5.70;99.90;;;;;;4977100;28;20097;-70
2024/01/05 08:59:53;;;;;;;9.75;4.40;;;5.70;99.90;;;;;;4989006;28;20050;-71
2024/01/05 09:02:21;;;;;;;21.75;6.10;;;5.70;99.90;;;;;;5002082;28;20050;-70
2024/01/05 09:04:48;;;;;;;15.18;5.50;;;5.70;99.90;;;;;;4972755;28;20042;-71
2024/01/05 09:07:15;;;;;;;16.30;5.38;;;5.70;99.90;;;;;;5006436;28;20436;-71
2024/01/05 09:09:42;;;;;;;18.65;5.32;;;5.70;99.90;;;;;;5006583;28;20112;-71
2024/01/05 09:12:09;;;;;;;11.00;4.50;;;5.80;99.90;;;;;;4999086;28;20120;-70
2024/01/05 09:14:37;;;;;;;17.70;5.40;;;5.80;99.90;;;;;;4988580;28;20080;-71
2024/01/05 09:17:04;;;;;;;11.73;4.72;;;5.80;99.90;;;;;;5004572;28;20049;-72
2024/01/05 09:19:32;;;;;;;12.23;4.65;;;5.80;99.90;;;;;;5007603;28;20045;-70
2024/01/05 09:21:59;;;;;;;15.57;4.97;;;5.80;99.90;;;;;;4987595;28;20041;-70
2024/01/05 09:24:28;;;;;;;9.35;3.70;;;5.90;99.90;;;;;;5004564;28;20065;-70
2024/01/05 09:26:56;;;;;;;11.88;3.83;;;5.80;99.90;;;;;;4987268;28;20058;-70
2024/01/05 09:29:23;;;;;;;15.68;4.68;;;5.90;99.90;;;;;;5004564;28;20501;-70
2024/01/05 09:31:51;;;;;;;15.57;3.75;;;5.80;99.90;;;;;;4989260;28;20632;-69
2024/01/05 09:34:18;;;;;;;21.17;4.45;;;5.90;99.90;;;;;;5007612;28;20050;-71
2024/01/05 09:36:45;;;;;;;8.80;3.33;;;5.80;99.90;;;;;;4988433;28;20077;-69
2024/01/05 09:39:12;;;;;;;11.50;3.58;;;5.90;99.90;;;;;;5003373;28;20046;-70
2024/01/05 09:41:42;;;;;;;12.43;3.10;;;5.90;99.90;;;;;;5004828;28;20042;-71
2024/01/05 09:44:10;;;;;;;15.82;4.53;;;5.80;99.90;;;;;;4998858;28;20050;-71
2024/01/05 09:46:40;;;;;;;13.57;4.28;;;5.90;99.90;;;;;;4989770;28;20049;-71
2024/01/05 09:49:08;;;;;;;7.50;3.55;;;5.90;99.90;;;;;;4995407;28;20100;-71
2024/01/05 09:51:36;;;;;;;10.90;3.50;;;5.90;99.90;;;;;;5006393;28;20080;-71
2024/01/05 09:54:04;;;;;;;10.93;5.45;;;5.90;99.90;;;;;;4985777;28;20057;-71
2024/01/05 09:56:31;;;;;;;13.13;5.05;;;5.90;99.90;;;;;;5003048;28;20057;-71
2024/01/05 09:58:57;;;;;;;12.70;4.43;;;5.90;99.90;;;;;;4989203;28;20046;-70
2024/01/05 10:01:25;;;;;;;9.95;3.53;;;5.90;99.90;;;;;;4988784;28;20116;-71
2024/01/05 10:03:58;;;;;;;10.20;3.38;;;5.90;99.90;;;;;;4979731;28;20047;-70
2024/01/05 10:06:25;;;;;;;15.05;3.65;;;5.90;99.90;;;;;;5002749;28;20069;-71
2024/01/05 10:08:58;;;;;;;9.80;3.25;;;6.00;99.90;;;;;;4992459;28;20061;-71
2024/01/05 10:11:35;;;;;;;9.27;4.15;;;6.00;99.90;;;;;;4984525;28;20053;-71
2024/01/05 10:14:07;;;;;;;11.27;3.83;;;5.90;99.90;;;;;;4997676;28;20077;-71
2024/01/05 10:16:36;;;;;;;15.15;3.58;;;6.00;99.90;;;;;;5007317;28;20045;-71
2024/01/05 10:19:17;;;;;;;14.23;3.70;;;6.00;99.90;;;;;;4989726;28;20145;-70
2024/01/05 10:21:45;;;;;;;11.02;3.50;;;6.10;99.90;;;;;;5002878;28;20057;-72
2024/01/05 10:24:24;;;;;;;6.75;2.72;;;6.10;99.90;;;;;;4984785;28;20048;-71
2024/01/05 10:27:06;;;;;;;8.35;3.50;;;6.00;99.90;;;;;;5004797;28;20588;-70
2024/01/05 10:29:36;;;;;;;7.63;3.83;;;6.00;99.90;;;;;;5002547;28;20089;-69
2024/01/05 10:32:18;;;;;;;7.80;3.17;;;6.10;99.90;;;;;;5003483;28;20112;-70
2024/01/05 10:34:47;;;;;;;12.57;3.72;;;6.10;99.90;;;;;;4988432;28;20045;-71
2024/01/05 10:37:19;;;;;;;10.68;3.45;;;6.10;99.90;;;;;;5004011;28;20049;-71
2024/01/05 10:39:47;;;;;;;17.83;4.45;;;6.10;99.90;;;;;;5002199;28;20132;-71
2024/01/05 10:42:35;;;;;;;17.38;3.42;;;6.10;99.90;;;;;;4983055;28;20064;-71
2024/01/05 10:45:02;;;;;;;8.95;3.13;;;6.20;99.90;;;;;;5006233;28;20053;-71
2024/01/05 10:47:29;;;;;;;17.73;6.50;;;6.20;99.90;;;;;;4987824;28;20058;-71
2024/01/05 10:49:56;;;;;;;10.30;3.60;;;6.30;99.90;;;;;;5001666;28;20633;-69
2024/01/05 10:52:30;;;;;;;5.57;3.30;;;6.30;99.90;;;;;;5004683;28;20054;-71
2024/01/05 10:54:57;;;;;;;7.45;3.78;;;6.30;99.90;;;;;;5007472;28;20529;-71
2024/01/05 10:57:24;;;;;;;11.10;4.72;;;6.30;99.90;;;;;;4996783;28;20787;-70
2024/01/05 10:59:54;;;;;;;15.02;4.68;;;6.30;99.90;;;;;;5009507;28;20108;-70
2024/01/05 11:02:31;;;;;;;14.60;4.70;;;6.40;99.90;;;;;;4991044;28;20078;-71
2024/01/05 11:05:09;;;;;;;12.68;3.95;;;6.40;99.90;;;;;;4990899;28;20453;-70
2024/01/05 11:07:40;;;;;;;12.30;3.92;;;6.40;99.90;;;;;;5008348;28;20084;-70
2024/01/05 11:10:16;;;;;;;9.32;4.25;;;6.40;99.90;;;;;;5004660;28;20056;-70
2024/01/05 11:12:49;;;;;;;16.17;4.82;;;6.40;99.90;;;;;;5006241;28;20104;-71
2024/01/05 11:15:30;;;;;;;14.35;4.20;;;6.50;99.90;;;;;;5003162;28;20582;-70
2024/01/05 11:18:42;;;;;;;13.10;4.40;;;6.60;99.90;;;;;;5006920;28;20050;-70
2024/01/05 11:21:41;;;;;;;12.80;3.30;;;6.50;99.90;;;;;;4988271;28;20046;-70
2024/01/05 11:24:08;;;;;;;12.55;4.70;;;6.70;99.90;;;;;;4975740;28;20100;-70
2024/01/05 11:26:39;;;;;;;12.43;4.30;;;6.70;99.90;;;;;;4972510;28;20045;-70
2024/01/05 11:29:09;;;;;;;7.50;3.55;;;6.80;99.90;;;;;;5005040;28;20100;-71
2024/01/05 11:31:48;;;;;;;12.85;5.22;;;6.70;99.90;;;;;;4974926;28;20456;-69
2024/01/05 11:34:34;;;;;;;14.57;4.78;;;6.70;99.90;;;;;;5002515;28;20058;-70
2024/01/05 11:37:04;;;;;;;10.10;4.40;;;6.70;99.90;;;;;;5009317;28;20056;-69
2024/01/05 11:39:44;;;;;;;10.13;4.53;;;6.80;99.90;;;;;;5007516;28;20061;-70
2024/01/05 11:42:27;;;;;;;9.38;4.47;;;6.70;99.90;;;;;;4985130;28;20057;-69
2024/01/05 11:45:03;;;;;;;17.08;4.60;;;6.80;99.90;;;;;;4992284;28;20046;-69
2024/01/05 11:47:45;;;;;;;7.45;4.50;;;6.80;99.90;;;;;;5006506;28;20169;-69
2024/01/05 11:50:32;;;;;;;15.88;4.28;;;6.80;99.90;;;;;;5005926;28;20133;-71
2024/01/05 11:53:13;;;;;;;12.95;4.38;;;6.90;99.90;;;;;;4979709;28;20093;-68
2024/01/05 11:55:48;;;;;;;11.23;4.03;;;6.80;99.90;;;;;;4996846;28;20069;-69
2024/01/05 11:58:28;;;;;;;9.77;3.60;;;6.90;99.90;;;;;;4987325;28;20054;-69
2024/01/05 12:00:57;;;;;;;7.25;3.53;;;6.90;99.90;;;;;;5006198;28;20050;-69
2024/01/05 12:03:25;;;;;;;9.40;3.80;;;6.90;99.90;;;;;;5008988;28;20045;-68
2024/01/05 12:05:57;;;;;;;8.23;3.97;;;6.90;99.90;;;;;;5003458;28;20050;-69
2024/01/05 12:08:24;;;;;;;14.07;4.07;;;7.00;99.90;;;;;;4992218;28;20097;-69
2024/01/05 12:10:58;;;;;;;10.30;3.88;;;7.00;99.90;;;;;;4978915;28;20059;-69
2024/01/05 12:13:26;;;;;;;;;;;7.00;99.90;;;;;;4990647;28;20885;-71
2024/01/05 12:15:54;;;;;;;8.88;3.50;;;7.00;99.90;;;;;;4998618;28;19974;-68
2024/01/05 12:18:30;;;;;;;8.90;4.13;;;7.10;99.90;;;;;;5001239;28;20426;-69
2024/01/05 12:21:05;;;;;;;12.70;4.45;;;7.10;99.90;;;;;;4986133;28;20136;-69
2024/01/05 12:23:34;;;;;;;10.75;4.20;;;7.10;99.90;;;;;;4960618;28;20103;-69
2024/01/05 12:26:05;;;;;;;13.88;4.03;;;7.10;99.90;;;;;;5000160;28;20343;-69
2024/01/05 12:28:38;;;;;;;12.45;4.25;;;7.10;99.90;;;;;;5004594;28;20050;-70
2024/01/05 12:31:05;;;;;;;8.15;3.17;;;7.10;99.90;;;;;;4986765;28;20113;-69
2024/01/05 12:33:34;;;;;;;11.40;4.20;;;7.20;99.90;;;;;;5004560;28;20104;-69
2024/01/05 12:36:01;;;;;;;10.32;4.82;;;7.10;99.90;;;;;;4988056;28;20068;-70
2024/01/05 12:38:31;;;;;;;9.80;4.30;;;7.20;99.90;;;;;;5005834;28;20273;-69
2024/01/05 12:41:09;;;;;;;10.95;3.95;;;7.20;99.90;;;;;;5003046;28;20057;-69
2024/01/05 12:43:36;;;;;;;18.63;4.68;;;7.10;99.90;;;;;;5001082;28;20045;-69
2024/01/05 12:46:04;;;;;;;5.57;4.45;;;7.20;99.90;;;;;;5004652;28;20204;-70
2024/01/05 12:48:32;;;;;;;12.25;4.38;;;7.20;99.90;;;;;;4986332;28;20515;-70
2024/01/05 12:51:06;;;;;;;11.45;3.97;;;7.30;99.90;;;;;;4988113;28;20096;-71
2024/01/05 12:53:33;;;;;;;;;;;7.20;99.90;;;;;;4986114;28;20069;-70
2024/01/05 12:56:13;;;;;;;13.48;6.07;;;7.20;99.90;;;;;;5003128;28;20308;-70
2024/01/05 12:58:40;;;;;;;6.78;3.05;;;7.30;99.90;;;;;;4994255;28;20100;-69
2024/01/05 13:01:28;;;;;;;8.93;3.17;;;7.20;99.90;;;;;;4651806;28;9999680;-69